ADDS METAR Data INFO
IDs: Format: Raw Decoded Include TAF

Data at: 0510 UTC 23 May 2017

KOSA 230455Z AUTO 12003KT 10SM CLR 16/16 A2994 RMK AO1 T01600160
KOSA 230435Z AUTO 00000KT 10SM CLR 16/15 A2995 RMK AO1 T01640151
KOSA 230415Z AUTO 00000KT 10SM CLR 17/15 A2995 RMK AO1 T01660152
KOSA 230355Z AUTO 00000KT 10SM CLR 17/16 A2996 RMK AO1 T01690155
KOSA 230335Z AUTO 00000KT 10SM SCT029 17/16 A2996 RMK AO1 T01710155
KOSA 230315Z AUTO 00000KT 10SM OVC029 17/15 A2996 RMK AO1 T01730151
KOSA 230255Z AUTO 00000KT 10SM BKN029 17/15 A2995 RMK AO1 T01730152
KOSA 230235Z AUTO 00000KT 10SM BKN029 18/15 A2995 RMK AO1 T01750145
KOSA 230215Z AUTO 08004KT 10SM OVC029 18/14 A2996 RMK AO1 T01760143
KOSA 230155Z AUTO 06003KT 10SM OVC027 18/14 A2996 RMK AO1 T01780142
KOSA 230135Z AUTO 09005KT 10SM BKN025 18/14 A2996 RMK AO1 T01810135
KOSA 230115Z AUTO 09004KT 10SM SCT020 OVC028 18/13 A2996 RMK AO1 T01820132
KOSA 230055Z AUTO 07005KT 10SM SCT022 OVC028 18/14 A2997 RMK AO1 T01840136
KOSA 230035Z AUTO 09005KT 10SM OVC025 19/13 A2997 RMK AO1 T01850134
KOSA 230015Z AUTO 11006KT 10SM OVC029 19/14 A2997 RMK AO1 T01900136
KOSA 222355Z AUTO 12005KT 10SM SCT024 OVC029 19/14 A2997 RMK AO1 T01920141 10228 20192
KOSA 222335Z AUTO 13005KT 10SM OVC029 20/14 A2997 RMK AO1 T01960141
KOSA 222315Z AUTO 11004KT 10SM OVC027 20/14 A2998 RMK AO1 T01970140
KOSA 222255Z AUTO 12005KT 10SM BKN027 20/14 A2999 RMK AO1 T01990140
KOSA 222235Z AUTO 13006KT 10SM BKN027 OVC037 20/14 A2999 RMK AO1 T02010136
KOSA 222215Z AUTO 12007KT 080V140 10SM SCT027 SCT032 BKN037 21/14 A2999 RMK AO1 T02080138
KOSA 222155Z AUTO 08006KT 10SM OVC035 21/13 A2999 RMK AO1 T02060133
KOSA 222135Z AUTO 09005KT 10SM OVC035 21/13 A3000 RMK AO1 T02050129
KOSA 222115Z AUTO 12010KT 10SM BKN037 21/13 A2999 RMK AO1 T02100128
KOSA 222055Z AUTO 11009KT 10SM SCT042 22/13 A3000 RMK AO1 T02150128
KOSA 222035Z AUTO 09008KT 10SM SCT029 BKN042 22/14 A3001 RMK AO1 T02170136
KOSA 222015Z AUTO 12007KT 10SM SCT042 22/14 A3003 RMK AO1 T02150140
KOSA 221955Z AUTO 11007KT 10SM SCT028 SCT034 BKN042 22/15 A3003 RMK AO1 T02200145
KOSA 221935Z AUTO 12009KT 060V130 10SM BKN028 BKN034 BKN044 22/15 A3004 RMK AO1 T02170145
KOSA 221915Z AUTO 06003KT 10SM SCT026 SCT034 22/14 A3005 RMK AO1 T02220142
KOSA 221855Z AUTO 11007KT 10SM SCT026 SCT032 22/15 A3005 RMK AO1 T02220151
KOSA 221835Z AUTO 11008KT 10SM SCT027 SCT033 22/15 A3006 RMK AO1 T02150148
KOSA 221815Z AUTO 13007KT 10SM SCT027 22/15 A3007 RMK AO1 T02200145
KOSA 221755Z AUTO 11008KT 10SM SCT027 22/14 A3008 RMK AO1 T02160143 10220 20158
KOSA 221735Z AUTO 07008KT 10SM SCT025 22/15 A3007 RMK AO1 T02180146
KOSA 221715Z AUTO 07005KT 10SM SCT024 21/14 A3008 RMK AO1 T02090140
KOSA 221655Z AUTO 08008KT 10SM SCT021 21/14 A3008 RMK AO1 T02100142
KOSA 221635Z AUTO 07007KT 10SM SCT019 21/15 A3009 RMK AO1 T02070146
KOSA 221615Z AUTO 07011G14KT 10SM SCT019 21/16 A3009 RMK AO1 T02070155
KOSA 221555Z AUTO 05008KT 10SM CLR 20/15 A3010 RMK AO1 T02040153
KOSA 221535Z AUTO 07008KT 10SM CLR 20/15 A3010 RMK AO1 T02000153
KOSA 221515Z AUTO 07007KT 10SM CLR 20/16 A3011 RMK AO1 T01980158
KOSA 221455Z AUTO 07008KT 10SM SCT016 SCT022 SCT029 20/17 A3010 RMK AO1 T01950166
KOSA 221435Z AUTO 09007KT 10SM SCT033 19/17 A3011 RMK AO1 T01920167
KOSA 221415Z AUTO 06006KT 10SM SCT033 SCT065 19/17 A3010 RMK AO1 T01900169
KOSA 221355Z AUTO 05005KT 10SM SCT060 18/17 A3011 RMK AO1 T01830171
KOSA 221335Z AUTO 04005KT 10SM SCT060 18/17 A3011 RMK AO1 T01760170
KOSA 221315Z AUTO 02003KT 10SM SCT060 17/17 A3011 RMK AO1 T01690166
KOSA 221255Z AUTO 02003KT 10SM CLR 16/16 A3011 RMK AO1 T01630162
KOSA 221235Z AUTO 05003KT 10SM CLR 16/16 A3011 RMK AO1 T01600156
KOSA 221215Z AUTO 02003KT 10SM CLR 16/15 A3012 RMK AO1 T01600152
KOSA 221155Z AUTO 03003KT 10SM CLR 16/15 A3011 RMK AO1 70006 T01570147 10193 20157
KOSA 221135Z AUTO 00000KT 10SM CLR 16/15 A3011 RMK AO1 T01600147
KOSA 221115Z AUTO 00000KT 10SM CLR 16/15 A3011 RMK AO1 T01600146
KOSA 221055Z AUTO 07004KT 10SM SCT010 SCT014 16/15 A3011 RMK AO1 T01600147
KOSA 221035Z AUTO 00000KT 7SM SCT008 16/15 A3012 RMK AO1 T01600145
KOSA 221015Z AUTO 00000KT 10SM SCT008 16/14 A3012 RMK AO1 T01590140
KOSA 220955Z AUTO 11005KT 7SM BKN010 BKN013 16/14 A3012 RMK AO1 T01600135
KOSA 220935Z AUTO 09004KT 7SM BKN010 BKN014 16/14 A3011 RMK AO1 T01640135
KOSA 220915Z AUTO 11005KT 10SM SCT009 SCT012 17/15 A3012 RMK AO1 T01720150
KOSA 220855Z AUTO 12003KT 7SM SCT009 SCT012 18/15 A3013 RMK AO1 T01770152
KOSA 220835Z AUTO 08005KT 10SM SCT008 BKN013 BKN020 18/15 A3012 RMK AO1 T01770153
KOSA 220815Z AUTO 08005KT 7SM BKN007 BKN011 19/18 A3012 RMK AO1 T01850177
KOSA 220755Z AUTO 00000KT 5SM OVC009 19/18 A3014 RMK AO1 T01890177
KOSA 220735Z AUTO 00000KT 5SM SCT010 19/18 A3014 RMK AO1 T01900178
KOSA 220715Z AUTO 00000KT 10SM CLR 19/18 A3014 RMK AO1 T01870177
KOSA 220655Z AUTO 00000KT 10SM SCT008 19/18 A3015 RMK AO1 T01910176
KOSA 220635Z AUTO 25006KT 10SM BKN008 BKN015 19/17 A3017 RMK AO1 T01910174
KOSA 220615Z AUTO 23013G17KT 7SM BKN008 BKN016 BKN080 19/18 A3018 RMK AO1 T01930177
KOSA 220555Z AUTO 20004KT 10SM SCT080 19/18 A3014 RMK AO1 60001 T01940176 10233 20188 402510162
KOSA 220535Z AUTO 00000KT 10SM SCT080 19/18 A3012 RMK AO1 T01910176
KOSA 220515Z AUTO 00000KT 10SM SCT080 19/18 A3013 RMK AO1 T01890175
KOSA 220455Z AUTO 00000KT 10SM CLR 19/18 A3012 RMK AO1 P0001 T01900175
KOSA 220435Z AUTO 00000KT 10SM CLR 19/17 A3012 RMK AO1 P0001 T01920171
KOSA 220415Z AUTO 01004KT 10SM CLR 19/17 A3011 RMK AO1 T01910171
KOSA 220355Z AUTO 01003KT 10SM CLR 19/18 A3011 RMK AO1 T01880175
KOSA 220335Z AUTO 00000KT 10SM CLR 19/17 A3010 RMK AO1 T01940170
KOSA 220315Z AUTO 02003KT 10SM SCT075 19/17 A3010 RMK AO1 T01930172
KOSA 220255Z AUTO 00000KT 10SM SCT075 20/18 A3011 RMK AO1 T02000176
KOSA 220235Z AUTO 00000KT 10SM CLR 20/18 A3012 RMK AO1 T01970176
KOSA 220215Z AUTO 00000KT 10SM CLR 19/18 A3011 RMK AO1 T01930181
KOSA 220155Z AUTO 00000KT 10SM CLR 21/17 A3010 RMK AO1 T02060170
KOSA 220135Z AUTO 00000KT 10SM CLR 20/18 A3009 RMK AO1 T02040181
KOSA 220115Z AUTO 00000KT 10SM CLR 21/17 A3010 RMK AO1 T02120171
KOSA 220055Z AUTO 00000KT 10SM CLR 22/17 A3010 RMK AO1 T02200174
KOSA 220035Z AUTO 00000KT 10SM CLR 23/16 A3010 RMK AO1 T02290164
KOSA 220015Z AUTO 00000KT 10SM CLR 23/17 A3009 RMK AO1 T02300165
KOSA 212355Z AUTO 00000KT 10SM CLR 23/15 A3009 RMK AO1 60003 T02330150 10251 20206
KOSA 212335Z AUTO 00000KT 10SM CLR 24/14 A3009 RMK AO1 T02370141
KOSA 212315Z AUTO 04003KT 10SM CLR 24/13 A3009 RMK AO1 T02430130
KOSA 212255Z AUTO 00000KT 10SM CLR 25/13 A3010 RMK AO1 P0001 T02460132
KOSA 212235Z AUTO 03005KT 10SM CLR 25/12 A3010 RMK AO1 T02470123
KOSA 212215Z AUTO 01005KT 10SM CLR 25/13 A3010 RMK AO1 T02490127
KOSA 212155Z AUTO 04004KT 10SM CLR 25/11 A3011 RMK AO1 T02480113
KOSA 212135Z AUTO 05008KT 10SM CLR 25/12 A3010 RMK AO1 T02500123
KOSA 212115Z AUTO 04006KT 10SM CLR 25/12 A3011 RMK AO1 T02510117
KOSA 212055Z AUTO 02007KT 10SM CLR 25/12 A3011 RMK AO1 60002 T02470124
KOSA 212035Z AUTO 03006KT 10SM CLR 25/13 A3011 RMK AO1 T02450133
KOSA 212015Z AUTO 03005KT 10SM CLR 24/13 A3012 RMK AO1 T02350130
KOSA 211955Z AUTO 03006KT 10SM CLR 24/14 A3012 RMK AO1 P0001 T02400135
KOSA 211935Z AUTO 02003KT 10SM CLR 23/14 A3014 RMK AO1 T02300137
KOSA 211915Z AUTO 07005KT 10SM CLR 23/13 A3016 RMK AO1 T02300128
KOSA 211855Z AUTO 07005KT 10SM CLR 22/12 A3017 RMK AO1 P0001 T02210122
KOSA 211835Z AUTO 04003KT 10SM CLR 22/13 A3018 RMK AO1 P0001 T02160128
KOSA 211815Z AUTO 04005KT 10SM CLR 21/14 A3017 RMK AO1 P0001 T02090135
KOSA 211755Z AUTO 00000KT 10SM CLR 21/13 A3016 RMK AO1 60002 T02060134 10206 20162
KOSA 211735Z AUTO 07006KT 10SM CLR 21/13 A3016 RMK AO1 T02050130
KOSA 211715Z AUTO 02005KT 10SM CLR 20/14 A3016 RMK AO1 T02010139


Page loaded:  05:10 UTC  |   10:10 PM Pacific  |   11:10 PM Mountain  |   12:10 AM Central  |   01:10 AM Eastern

 

ADVISORIES

FORECASTS

FORECASTS

OBSERVATIONS

USER TOOLS

ABOUT US